createdAt,value
2018-08-09T00:02:15.648Z,99692.74
2018-08-09T00:04:42.030Z,99699.14
2018-08-09T00:07:08.060Z,99690.20
2018-08-09T00:09:34.126Z,99688.17
2018-08-09T00:12:00.161Z,99684.88
2018-08-09T00:14:26.203Z,99694.06
2018-08-09T00:16:52.262Z,99694.30
2018-08-09T00:19:18.352Z,99695.77
2018-08-09T00:21:44.559Z,99706.02
2018-08-09T00:24:10.641Z,99705.78
2018-08-09T00:26:36.760Z,99703.99
2018-08-09T00:29:02.887Z,99704.52
2018-08-09T00:31:29.130Z,99696.33
2018-08-09T00:33:55.223Z,99699.47
2018-08-09T00:36:21.406Z,99691.98
2018-08-09T00:38:47.489Z,99695.58
2018-08-09T00:41:13.640Z,99697.68
2018-08-09T00:43:39.687Z,99700.77
2018-08-09T00:46:05.753Z,99699.91
2018-08-09T00:48:31.870Z,99695.09
2018-08-09T00:50:58.033Z,99701.00
2018-08-09T00:53:24.188Z,99689.51
2018-08-09T00:58:29.125Z,99691.80
2018-08-09T01:00:55.268Z,99687.03
2018-08-09T01:03:21.404Z,99688.87
2018-08-09T01:05:47.485Z,99685.56
2018-08-09T01:08:13.628Z,99691.27
2018-08-09T01:10:39.757Z,99693.70
2018-08-09T01:13:06.114Z,99698.56
2018-08-09T01:15:32.229Z,99700.66
2018-08-09T01:17:58.415Z,99698.27
2018-08-09T01:20:24.834Z,99706.03
2018-08-09T01:22:50.927Z,99698.81
2018-08-09T01:25:17.024Z,99693.67
2018-08-09T01:27:43.181Z,99694.77
2018-08-09T01:30:09.197Z,99697.13
2018-08-09T01:32:35.175Z,99696.77
2018-08-09T01:35:01.154Z,99703.44
2018-08-09T01:37:27.129Z,99707.61
2018-08-09T01:39:53.092Z,99708.01
2018-08-09T01:42:19.148Z,99705.07
2018-08-09T01:44:45.139Z,99705.75
2018-08-09T01:47:11.086Z,99698.03
2018-08-09T01:49:37.034Z,99704.63
2018-08-09T01:52:02.991Z,99703.66
2018-08-09T01:54:28.931Z,99714.84
2018-08-09T01:56:54.867Z,99718.43
2018-08-09T01:59:20.825Z,99719.14
2018-08-09T02:01:46.783Z,99718.91
2018-08-09T02:04:12.718Z,99718.58
2018-08-09T02:06:38.675Z,99720.73
2018-08-09T02:09:04.638Z,99715.84
2018-08-09T02:11:30.567Z,99711.97
2018-08-09T02:13:56.519Z,99704.42
2018-08-09T02:16:22.471Z,99710.67
2018-08-09T02:18:48.402Z,99714.08
2018-08-09T02:21:14.337Z,99714.73
2018-08-09T02:23:40.305Z,99717.13
2018-08-09T02:26:06.251Z,99726.01
2018-08-09T02:28:32.210Z,99728.52
2018-08-09T02:30:58.135Z,99724.54
2018-08-09T02:33:24.063Z,99723.15
2018-08-09T02:35:50.007Z,99723.90
2018-08-09T02:38:15.932Z,99719.91
2018-08-09T02:40:41.877Z,99721.38
2018-08-09T02:43:07.812Z,99722.12
2018-08-09T02:45:33.765Z,99724.34
2018-08-09T02:47:59.712Z,99730.62
2018-08-09T02:50:25.673Z,99730.99
2018-08-09T02:52:51.602Z,99730.83
2018-08-09T02:55:17.546Z,99728.97
2018-08-09T02:57:43.489Z,99722.70
2018-08-09T03:00:09.440Z,99726.69
2018-08-09T03:02:35.393Z,99720.47
2018-08-09T03:05:01.316Z,99725.17
2018-08-09T03:07:27.291Z,99733.77
2018-08-09T03:09:53.257Z,99734.22
2018-08-09T03:12:19.212Z,99735.63
2018-08-09T03:14:45.143Z,99735.88
2018-08-09T03:17:11.158Z,99744.67
2018-08-09T03:19:37.086Z,99740.07
2018-08-09T03:22:03.021Z,99750.03
2018-08-09T03:24:29.134Z,99751.09
2018-08-09T03:26:55.060Z,99753.74
2018-08-09T03:29:21.020Z,99754.27
2018-08-09T03:31:47.042Z,99752.16
2018-08-09T03:34:13.008Z,99750.93
2018-08-09T03:36:38.963Z,99755.48
2018-08-09T03:39:04.899Z,99756.14
2018-08-09T03:41:30.867Z,99755.33
2018-08-09T03:43:56.852Z,99759.94
2018-08-09T03:46:22.830Z,99761.81
2018-08-09T03:48:48.835Z,99758.64
2018-08-09T03:51:15.954Z,99765.35
2018-08-09T03:53:41.932Z,99763.28
2018-08-09T03:56:07.895Z,99764.00
2018-08-09T03:58:33.859Z,99763.93
2018-08-09T04:00:59.845Z,99768.16
2018-08-09T04:03:25.793Z,99764.23
2018-08-09T04:05:51.738Z,99766.30
2018-08-09T04:08:17.672Z,99769.06
2018-08-09T04:10:43.603Z,99769.23
2018-08-09T04:13:09.655Z,99779.47
2018-08-09T04:15:35.632Z,99770.28
2018-08-09T04:18:01.609Z,99764.92
2018-08-09T04:20:27.556Z,99767.30
2018-08-09T04:22:53.490Z,99771.86
2018-08-09T04:25:19.442Z,99768.75
2018-08-09T04:27:45.404Z,99762.95
2018-08-09T04:30:11.359Z,99768.77
2018-08-09T04:32:37.299Z,99769.80
2018-08-09T04:35:03.241Z,99768.73
2018-08-09T04:37:29.179Z,99769.50
2018-08-09T04:39:55.100Z,99769.78
2018-08-09T04:42:21.063Z,99772.30
2018-08-09T04:44:47.014Z,99772.66
2018-08-09T04:47:12.977Z,99768.02
2018-08-09T04:49:38.922Z,99768.39
2018-08-09T04:52:04.860Z,99774.71
2018-08-09T04:54:32.404Z,99775.42
2018-08-09T04:56:58.470Z,99776.00
2018-08-09T04:59:24.469Z,99773.88
2018-08-09T05:01:50.430Z,99772.46
2018-08-09T05:04:16.468Z,99778.48
2018-08-09T05:06:42.434Z,99777.63
2018-08-09T05:09:08.364Z,99779.02
2018-08-09T05:11:34.341Z,99782.59
2018-08-09T05:14:00.272Z,99789.06
2018-08-09T05:16:26.216Z,99785.73
2018-08-09T05:18:52.185Z,99785.88
2018-08-09T05:21:18.127Z,99785.28
2018-08-09T05:23:44.080Z,99784.88
2018-08-09T05:26:10.005Z,99780.48
2018-08-09T05:28:35.931Z,99784.80
2018-08-09T05:31:01.860Z,99782.31
2018-08-09T05:33:27.772Z,99772.19
2018-08-09T05:35:53.715Z,99775.38
2018-08-09T05:38:19.655Z,99776.80
2018-08-09T05:40:45.612Z,99782.69
2018-08-09T05:43:11.566Z,99787.41
2018-08-09T05:45:37.512Z,99783.34
2018-08-09T05:48:03.441Z,99789.14
2018-08-09T05:50:29.450Z,99784.35
2018-08-09T05:52:55.495Z,99787.52
2018-08-09T05:55:21.334Z,99786.99
2018-08-09T05:57:47.257Z,99780.61
2018-08-09T06:00:13.207Z,99783.89
2018-08-09T06:02:39.168Z,99784.43
2018-08-09T06:05:05.112Z,99788.55
2018-08-09T06:07:31.075Z,99791.12
2018-08-09T06:09:57.008Z,99793.86
2018-08-09T06:12:22.938Z,99800.43
2018-08-09T06:14:48.870Z,99793.42
2018-08-09T06:17:14.808Z,99797.08
2018-08-09T06:19:40.736Z,99801.69
2018-08-09T06:22:06.668Z,99794.19
2018-08-09T06:24:32.597Z,99796.77
2018-08-09T06:26:58.541Z,99798.62
2018-08-09T06:29:24.501Z,99801.45
2018-08-09T06:31:50.448Z,99802.91
2018-08-09T06:34:16.412Z,99797.47
2018-08-09T06:36:42.355Z,99793.45
2018-08-09T06:39:08.293Z,99787.91
2018-08-09T06:41:34.230Z,99789.93
2018-08-09T06:44:00.191Z,99789.48
2018-08-09T06:46:26.154Z,99793.39
2018-08-09T06:48:52.114Z,99797.29
2018-08-09T06:51:18.046Z,99793.98
2018-08-09T06:53:43.991Z,99801.06
2018-08-09T06:56:09.967Z,99802.61
2018-08-09T06:58:35.927Z,99805.58
2018-08-09T07:01:01.858Z,99807.92
2018-08-09T07:03:27.804Z,99804.60
2018-08-09T07:05:53.759Z,99800.47
2018-08-09T07:08:19.712Z,99802.61
2018-08-09T07:10:45.655Z,99805.06
2018-08-09T07:13:11.606Z,99807.89
2018-08-09T07:15:37.544Z,99805.16
2018-08-09T07:18:03.518Z,99806.12
2018-08-09T07:20:29.538Z,99812.19
2018-08-09T07:22:55.459Z,99810.93
2018-08-09T07:25:21.452Z,99811.58
2018-08-09T07:27:47.390Z,99809.83
2018-08-09T07:30:13.366Z,99806.88
2018-08-09T07:32:39.291Z,99806.64
2018-08-09T07:35:05.214Z,99806.38
2018-08-09T07:37:31.148Z,99807.48
2018-08-09T07:39:57.101Z,99804.42
2018-08-09T07:42:23.039Z,99811.46
2018-08-09T07:44:48.972Z,99811.66
2018-08-09T07:47:14.920Z,99810.69
2018-08-09T07:49:40.898Z,99806.48
2018-08-09T07:52:06.860Z,99808.92
2018-08-09T07:54:32.815Z,99801.89
2018-08-09T07:56:58.784Z,99798.62
2018-08-09T07:59:24.726Z,99799.93
2018-08-09T08:01:50.668Z,99801.31
2018-08-09T08:04:16.634Z,99792.68
2018-08-09T08:06:42.571Z,99791.65
2018-08-09T08:09:08.540Z,99796.09
2018-08-09T08:11:34.487Z,99791.20
2018-08-09T08:14:00.429Z,99785.83
2018-08-09T08:16:26.380Z,99783.03
2018-08-09T08:18:52.332Z,99783.09
2018-08-09T08:21:18.332Z,99778.19
2018-08-09T08:23:44.287Z,99779.58
2018-08-09T08:26:10.227Z,99785.83
2018-08-09T08:28:36.191Z,99775.80
2018-08-09T08:31:02.141Z,99781.72
2018-08-09T08:33:28.092Z,99781.86
2018-08-09T08:35:54.020Z,99773.05
2018-08-09T08:38:19.948Z,99776.84
2018-08-09T08:40:45.876Z,99774.59
2018-08-09T08:43:11.803Z,99773.76
2018-08-09T08:45:37.749Z,99770.70
2018-08-09T08:48:03.677Z,99764.91
2018-08-09T08:50:29.611Z,99764.48
2018-08-09T08:52:55.620Z,99760.53
2018-08-09T08:55:21.631Z,99758.55
2018-08-09T08:57:47.615Z,99749.55
2018-08-09T09:00:13.621Z,99750.41
2018-08-09T09:02:39.545Z,99745.56
2018-08-09T09:05:05.535Z,99745.77
2018-08-09T09:07:31.441Z,99741.16
2018-08-09T09:09:57.508Z,99738.92
2018-08-09T09:12:23.469Z,99740.13
2018-08-09T09:14:49.443Z,99734.31
2018-08-09T09:17:15.389Z,99725.08
2018-08-09T09:19:41.344Z,99728.13
2018-08-09T09:22:07.280Z,99727.77
2018-08-09T09:24:33.224Z,99725.38
2018-08-09T09:26:59.170Z,99721.47
2018-08-09T09:29:25.143Z,99722.87
2018-08-09T09:31:51.071Z,99719.02
2018-08-09T09:34:16.999Z,99712.30
2018-08-09T09:36:42.944Z,99707.09
2018-08-09T09:39:08.874Z,99699.62
2018-08-09T09:41:34.820Z,99701.27
2018-08-09T09:44:00.762Z,99702.48
2018-08-09T09:46:26.688Z,99701.06
2018-08-09T09:48:52.632Z,99692.87
2018-08-09T09:51:18.586Z,99698.08
2018-08-09T09:53:44.531Z,99687.56
2018-08-09T09:56:10.475Z,99688.98
2018-08-09T09:58:36.427Z,99681.39
2018-08-09T10:01:02.388Z,99677.34
2018-08-09T10:03:28.309Z,99673.86
2018-08-09T10:05:54.298Z,99675.28
2018-08-09T10:08:20.244Z,99666.25
2018-08-09T10:10:46.200Z,99653.59
2018-08-09T10:13:12.150Z,99657.42
2018-08-09T10:15:38.109Z,99649.59
2018-08-09T10:18:04.037Z,99642.63
2018-08-09T10:20:30.000Z,99632.71
2018-08-09T10:22:55.929Z,99622.82
2018-08-09T10:25:21.891Z,99617.29
2018-08-09T10:27:47.831Z,99620.58
2018-08-09T10:30:13.781Z,99622.05
2018-08-09T10:32:39.713Z,99619.44
2018-08-09T10:35:05.638Z,99617.77
2018-08-09T10:37:31.564Z,99612.08
2018-08-09T10:39:57.516Z,99608.38
2018-08-09T10:42:23.475Z,99615.06
2018-08-09T10:44:49.431Z,99612.61
2018-08-09T10:47:15.367Z,99605.86
2018-08-09T10:49:41.309Z,99600.09
2018-08-09T10:52:07.286Z,99594.46
2018-08-09T10:54:33.232Z,99592.81
2018-08-09T10:56:59.196Z,99587.23
2018-08-09T10:59:25.164Z,99575.31
2018-08-09T11:01:51.170Z,99574.00
2018-08-09T11:04:17.084Z,99569.88
2018-08-09T11:06:43.030Z,99567.25
2018-08-09T11:09:08.964Z,99565.79
2018-08-09T11:11:34.924Z,99559.19
2018-08-09T11:14:00.837Z,99548.19
2018-08-09T11:16:26.811Z,99553.94
2018-08-09T11:18:52.754Z,99543.81
2018-08-09T11:21:18.684Z,99552.19
2018-08-09T11:23:44.657Z,99546.82
2018-08-09T11:26:10.598Z,99547.94
2018-08-09T11:28:36.521Z,99552.65
2018-08-09T11:31:02.495Z,99545.92
2018-08-09T11:33:31.314Z,99539.91
2018-08-09T11:35:57.252Z,99529.52
2018-08-09T11:38:23.180Z,99522.20
2018-08-09T11:40:49.133Z,99532.94
2018-08-09T11:43:15.070Z,99518.76
2018-08-09T11:45:40.993Z,99519.27
2018-08-09T11:48:06.963Z,99521.36
2018-08-09T11:50:32.894Z,99517.50
2018-08-09T11:52:58.841Z,99515.92
2018-08-09T11:55:24.776Z,99512.58
2018-08-09T11:57:50.722Z,99505.53
2018-08-09T12:00:16.676Z,99501.75
2018-08-09T12:02:42.615Z,99493.73
2018-08-09T12:05:08.549Z,99504.22
2018-08-09T12:07:34.517Z,99498.90
2018-08-09T12:10:00.474Z,99497.95
2018-08-09T12:12:26.416Z,99495.03
2018-08-09T12:14:52.357Z,99489.05
2018-08-09T12:17:18.277Z,99488.97
2018-08-09T12:19:44.237Z,99479.80
2018-08-09T12:22:10.186Z,99481.61
2018-08-09T12:24:36.110Z,99480.59
2018-08-09T12:27:02.130Z,99482.73
2018-08-09T12:29:28.062Z,99471.91
2018-08-09T12:31:54.009Z,99469.33
2018-08-09T12:34:19.932Z,99460.95
2018-08-09T12:36:45.919Z,99466.83
2018-08-09T12:39:11.820Z,99464.65
2018-08-09T12:41:37.757Z,99452.25
2018-08-09T12:44:03.709Z,99449.56
2018-08-09T12:46:29.673Z,99435.91
2018-08-09T12:48:55.608Z,99433.16
2018-08-09T12:51:21.523Z,99426.67
2018-08-09T12:53:47.471Z,99421.79
2018-08-09T12:56:13.423Z,99425.64
2018-08-09T12:58:39.364Z,99417.70
2018-08-09T13:01:05.304Z,99413.14
2018-08-09T13:03:31.272Z,99405.06
2018-08-09T13:05:57.230Z,99403.14
2018-08-09T13:08:23.185Z,99401.79
2018-08-09T13:10:49.121Z,99399.96
2018-08-09T13:13:15.045Z,99393.07
2018-08-09T13:15:41.012Z,99397.91
2018-08-09T13:18:07.998Z,99387.55
2018-08-09T13:20:33.954Z,99384.25
2018-08-09T13:22:59.938Z,99386.09
2018-08-09T13:25:25.853Z,99387.11
2018-08-09T13:27:51.817Z,99380.17
2018-08-09T13:30:17.789Z,99379.02
2018-08-09T13:32:43.713Z,99373.88
2018-08-09T13:35:09.644Z,99373.02
2018-08-09T13:37:35.604Z,99377.64
2018-08-09T13:40:01.528Z,99361.23
2018-08-09T13:42:27.465Z,99359.09
2018-08-09T13:44:53.413Z,99360.44
2018-08-09T13:47:19.371Z,99356.86
2018-08-09T13:49:45.316Z,99361.63
2018-08-09T13:52:11.266Z,99349.31
2018-08-09T13:54:37.225Z,99350.12
2018-08-09T13:57:03.193Z,99351.16
2018-08-09T13:59:29.155Z,99346.77
2018-08-09T14:01:55.117Z,99344.09
2018-08-09T14:04:21.086Z,99333.78
2018-08-09T14:06:47.030Z,99330.92
2018-08-09T14:09:12.980Z,99326.34
2018-08-09T14:11:38.924Z,99330.83
2018-08-09T14:14:04.879Z,99332.59
2018-08-09T14:16:30.812Z,99320.88
2018-08-09T14:18:56.768Z,99322.60
2018-08-09T14:21:22.752Z,99322.41
2018-08-09T14:23:48.704Z,99319.30
2018-08-09T14:26:14.663Z,99316.50
2018-08-09T14:28:40.633Z,99319.77
2018-08-09T14:31:06.592Z,99321.47
2018-08-09T14:33:32.551Z,99316.80
2018-08-09T14:35:58.498Z,99309.55
2018-08-09T14:38:24.469Z,99319.17
2018-08-09T14:40:50.417Z,99318.70
2018-08-09T14:43:16.392Z,99314.27
2018-08-09T14:45:42.331Z,99322.00
2018-08-09T14:48:08.301Z,99310.72
2018-08-09T14:50:34.243Z,99307.87
2018-08-09T14:53:00.192Z,99296.35
2018-08-09T14:55:26.140Z,99283.36
2018-08-09T14:57:52.086Z,99289.01
2018-08-09T15:00:18.046Z,99290.13
2018-08-09T15:02:43.983Z,99282.97
2018-08-09T15:05:09.928Z,99290.13
2018-08-09T15:07:35.864Z,99282.30
2018-08-09T15:10:01.824Z,99272.55
2018-08-09T15:12:27.760Z,99277.05
2018-08-09T15:14:53.703Z,99272.23
2018-08-09T15:17:19.734Z,99268.03
2018-08-09T15:19:45.665Z,99258.84
2018-08-09T15:22:11.608Z,99258.45
2018-08-09T15:24:37.545Z,99270.19
2018-08-09T15:29:35.969Z,99266.61
2018-08-09T15:32:01.902Z,99266.35
2018-08-09T15:34:27.875Z,99258.50
2018-08-09T15:36:53.819Z,99254.75
2018-08-09T15:39:19.784Z,99253.16
2018-08-09T15:41:45.741Z,99259.00
2018-08-09T15:44:11.703Z,99257.11
2018-08-09T15:46:37.647Z,99262.72
2018-08-09T15:49:03.629Z,99257.72
2018-08-09T15:51:29.581Z,99251.04
2018-08-09T15:53:55.509Z,99250.06
2018-08-09T15:56:21.460Z,99246.07
2018-08-09T15:58:47.419Z,99250.42
2018-08-09T16:01:13.354Z,99243.50
2018-08-09T16:03:39.307Z,99253.28
2018-08-09T16:06:05.270Z,99253.73
2018-08-09T16:08:31.231Z,99258.89
2018-08-09T16:10:57.205Z,99255.84
2018-08-09T16:13:23.181Z,99249.13
2018-08-09T16:15:49.145Z,99238.81
2018-08-09T16:18:15.118Z,99237.75
2018-08-09T16:20:41.068Z,99240.30
2018-08-09T16:23:07.062Z,99239.37
2018-08-09T16:25:33.021Z,99245.42
2018-08-09T16:27:58.990Z,99239.41
2018-08-09T16:30:24.968Z,99231.10
2018-08-09T16:32:50.900Z,99235.90
2018-08-09T16:35:16.869Z,99236.22
2018-08-09T16:37:42.827Z,99229.59
2018-08-09T16:40:08.795Z,99225.28
2018-08-09T16:42:34.736Z,99225.34
2018-08-09T16:45:00.682Z,99224.91
2018-08-09T16:47:26.692Z,99221.86
2018-08-09T16:49:52.636Z,99222.27
2018-08-09T16:52:18.601Z,99228.32
2018-08-09T16:54:44.571Z,99224.37
2018-08-09T16:57:10.563Z,99220.59
2018-08-09T16:59:36.528Z,99217.16
2018-08-09T17:02:02.520Z,99213.64
2018-08-09T17:04:28.515Z,99214.94
2018-08-09T17:06:54.565Z,99218.56
2018-08-09T17:09:20.540Z,99214.94
2018-08-09T17:11:46.512Z,99215.56
2018-08-09T17:14:12.466Z,99212.22
2018-08-09T17:16:38.491Z,99207.87
2018-08-09T17:19:04.481Z,99209.81
2018-08-09T17:21:30.475Z,99203.38
2018-08-09T17:23:56.413Z,99206.56
2018-08-09T17:26:22.365Z,99205.58
2018-08-09T17:28:48.316Z,99202.39
2018-08-09T17:31:14.387Z,99196.98
2018-08-09T17:33:40.397Z,99195.97
2018-08-09T17:36:06.347Z,99192.39
2018-08-09T17:38:32.275Z,99188.00
2018-08-09T17:40:58.262Z,99194.05
2018-08-09T17:43:24.342Z,99190.14
2018-08-09T17:45:50.260Z,99194.48
2018-08-09T17:48:16.229Z,99194.30
2018-08-09T17:50:42.187Z,99190.03
2018-08-09T17:53:08.140Z,99192.09
2018-08-09T17:55:34.112Z,99196.16
2018-08-09T17:58:00.080Z,99191.01
2018-08-09T18:00:26.012Z,99191.05
2018-08-09T18:02:51.997Z,99192.75
2018-08-09T18:05:17.981Z,99193.14
2018-08-09T18:07:43.973Z,99185.20
2018-08-09T18:10:09.925Z,99186.84
2018-08-09T18:12:35.936Z,99180.66
2018-08-09T18:15:01.980Z,99185.74
2018-08-09T18:17:28.140Z,99183.97
2018-08-09T18:19:54.225Z,99186.22
2018-08-09T18:22:20.271Z,99186.84
2018-08-09T18:24:46.231Z,99182.91
2018-08-09T18:27:12.254Z,99187.81
2018-08-09T18:29:38.256Z,99186.84
2018-08-09T18:32:04.224Z,99185.74
2018-08-09T18:34:30.209Z,99186.22
2018-08-09T18:36:56.165Z,99181.83
2018-08-09T18:39:22.133Z,99181.83
2018-08-09T18:41:48.112Z,99180.66
2018-08-09T18:44:14.042Z,99181.14
2018-08-09T18:46:40.029Z,99183.47
2018-08-09T18:49:06.066Z,99188.80
2018-08-09T18:51:32.044Z,99193.55
2018-08-09T18:53:58.109Z,99190.17
2018-08-09T18:56:24.132Z,99194.63
2018-08-09T18:58:50.114Z,99197.93
2018-08-09T19:01:16.122Z,99206.20
2018-08-09T19:03:42.179Z,99203.45
2018-08-09T19:06:08.137Z,99214.61
2018-08-09T19:08:34.261Z,99211.38
2018-08-09T19:11:00.603Z,99214.11
2018-08-09T19:13:26.632Z,99209.72
2018-08-09T19:15:52.686Z,99208.77
2018-08-09T19:18:18.671Z,99207.39
2018-08-09T19:20:44.617Z,99205.51
2018-08-09T19:23:10.567Z,99204.20
2018-08-09T19:25:36.529Z,99207.31
2018-08-09T19:28:02.887Z,99205.87
2018-08-09T19:30:28.870Z,99215.63
2018-08-09T19:32:54.820Z,99217.91
2018-08-09T19:35:20.771Z,99223.64
2018-08-09T19:37:46.785Z,99221.14
2018-08-09T19:40:12.793Z,99229.66
2018-08-09T19:42:38.748Z,99232.60
2018-08-09T19:45:08.777Z,99237.53
2018-08-09T19:47:35.302Z,99238.44
2018-08-09T19:50:01.342Z,99250.66
2018-08-09T19:52:27.557Z,99249.36
2018-08-09T19:54:59.120Z,99261.03
2018-08-09T19:57:25.052Z,99335.63
2018-08-09T19:59:51.012Z,99355.28
2018-08-09T20:02:16.976Z,99356.53
2018-08-09T20:04:42.953Z,99354.38
2018-08-09T20:07:08.893Z,99362.70
2018-08-09T20:09:34.860Z,99364.13
2018-08-09T20:12:00.862Z,99361.42
2018-08-09T20:14:26.906Z,99370.55
2018-08-09T20:16:52.904Z,99387.11
2018-08-09T20:19:18.890Z,99400.32
2018-08-09T20:21:44.849Z,99409.03
2018-08-09T20:24:10.806Z,99418.70
2018-08-09T20:26:36.739Z,99429.09
2018-08-09T20:29:02.796Z,99438.58
2018-08-09T20:31:28.677Z,99453.52
2018-08-09T20:33:54.663Z,99466.70
2018-08-09T20:36:20.612Z,99465.76
2018-08-09T20:38:46.604Z,99467.84
2018-08-09T20:41:12.589Z,99469.78
2018-08-09T20:43:38.559Z,99467.58
2018-08-09T20:46:04.569Z,99475.37
2018-08-09T20:48:30.591Z,99481.58
2018-08-09T20:50:56.635Z,99489.14
2018-08-09T20:53:22.617Z,99486.64
2018-08-09T20:55:48.640Z,99484.19
2018-08-09T20:58:14.612Z,99492.86
2018-08-09T21:00:40.552Z,99497.56
2018-08-09T21:03:06.491Z,99503.99
2018-08-09T21:05:33.781Z,99489.58
2018-08-09T21:07:59.729Z,99493.23
2018-08-09T21:10:25.680Z,99507.50
2018-08-09T21:12:51.628Z,99515.56
2018-08-09T21:15:17.632Z,99512.35
2018-08-09T21:17:43.654Z,99518.34
2018-08-09T21:20:09.596Z,99516.73
2018-08-09T21:22:35.581Z,99527.70
2018-08-09T21:25:01.529Z,99530.18
2018-08-09T21:27:27.592Z,99538.97
2018-08-09T21:29:53.568Z,99540.52
2018-08-09T21:32:19.538Z,99547.20
2018-08-09T21:34:45.458Z,99556.50
2018-08-09T21:37:11.439Z,99564.67
2018-08-09T21:39:37.415Z,99568.15
2018-08-09T21:42:03.348Z,99570.42
2018-08-09T21:44:29.320Z,99578.00
2018-08-09T21:46:55.267Z,99589.78
2018-08-09T21:49:21.231Z,99588.81
2018-08-09T21:51:47.171Z,99594.43
2018-08-09T21:54:13.126Z,99593.25
2018-08-09T21:56:39.056Z,99601.34
2018-08-09T21:59:05.012Z,99602.81
2018-08-09T22:01:30.948Z,99610.14
2018-08-09T22:03:56.882Z,99622.13
2018-08-09T22:06:22.829Z,99627.13
2018-08-09T22:08:48.789Z,99628.34
2018-08-09T22:11:14.754Z,99638.97
2018-08-09T22:13:40.711Z,99638.91
2018-08-09T22:16:06.768Z,99648.04
2018-08-09T22:18:32.697Z,99647.59
2018-08-09T22:20:58.662Z,99644.47
2018-08-09T22:23:24.605Z,99651.77
2018-08-09T22:25:50.582Z,99655.53
2018-08-09T22:28:16.580Z,99654.27
2018-08-09T22:30:42.544Z,99663.16
2018-08-09T22:33:08.527Z,99669.86
2018-08-09T22:35:34.475Z,99671.53
2018-08-09T22:38:00.475Z,99674.30
2018-08-09T22:40:26.451Z,99671.78
2018-08-09T22:42:52.376Z,99680.09
2018-08-09T22:45:18.315Z,99685.55
2018-08-09T22:47:44.253Z,99697.73
2018-08-09T22:50:10.190Z,99690.41
2018-08-09T22:52:36.155Z,99688.95
2018-08-09T22:55:02.092Z,99688.37
2018-08-09T22:57:28.027Z,99692.77
2018-08-09T22:59:53.991Z,99693.93
2018-08-09T23:02:19.954Z,99696.67
2018-08-09T23:04:45.931Z,99695.38
2018-08-09T23:07:11.862Z,99698.92
2018-08-09T23:09:37.782Z,99700.71
2018-08-09T23:12:03.728Z,99709.17
2018-08-09T23:14:29.689Z,99705.20
2018-08-09T23:16:55.619Z,99717.85
2018-08-09T23:19:21.567Z,99714.65
2018-08-09T23:21:47.513Z,99715.73
2018-08-09T23:24:13.453Z,99720.11
2018-08-09T23:26:39.401Z,99724.82
2018-08-09T23:29:05.360Z,99725.44
2018-08-09T23:31:31.309Z,99727.08
2018-08-09T23:33:57.271Z,99724.30
2018-08-09T23:36:23.207Z,99737.27
2018-08-09T23:38:49.144Z,99739.13
2018-08-09T23:41:15.102Z,99737.53
2018-08-09T23:43:41.025Z,99741.27
2018-08-09T23:46:06.971Z,99734.25
2018-08-09T23:48:32.928Z,99736.93
2018-08-09T23:50:58.945Z,99741.69
2018-08-09T23:53:24.913Z,99740.13
2018-08-09T23:55:50.871Z,99742.48
2018-08-09T23:58:16.820Z,99736.52
